Terminal Aerodrome Forecast
Issued by NWS Wilmington, OH

Current Version | Previous Version | Text Only | Print | Product List | Glossary Off
Versions: 1 2 3 4 5 6 7 8 9 10 11 12 13 14 15

509
FTUS41 KILN 212331
TAFCMH
TAF
KCMH 212331Z 2200/2224 29010KT P6SM SCT050
     FM220100 28004KT P6SM SCT250
     FM221400 31006KT P6SM SCT035=

USA.gov is the U.S. government's official web portal to all federal, state and local government web resources and services.